Whaley Lake, New York
Current Conditions -  °F | °C
As of 9:53 PM on Thursday 18 Dec 2014 (Local Time) from KPOU Reporting Station
Overcast Overcast  
Wind Chill:   Ceiling: 4000
Heat Index:   Visibility: 10mi
Dew Point: -3°   Wind: 0mph
Humidity: 65%   Direction: NA
Pressure: 29.94"   Gusts: NA
Location:  41.5306°N, 73.6674°W
Report Text: KPOU 190253Z AUTO 00000KT 10SM BKN040 OVC050 03/M03 A2994 RMK AO2 SLP137 T00281033 55001 TSNO
Loading
Personal Weather Stations






























Interactive Weather Map New forecast layout! Learn more

10-Day Weather Forecast

Advertisements
Track Severe Weather on mobile